sensor_id;sensor_type;location;lat;lon;timestamp;pressure;altitude;pressure_sealevel;temperature;humidity
64544;BME280;50936;51.660;5.616;2023-11-19T00:02:42;100503.06;;;25.87;42.95
64544;BME280;50936;51.660;5.616;2023-11-19T00:05:30;100500.09;;;25.82;43.19
64544;BME280;50936;51.660;5.616;2023-11-19T00:08:17;100492.84;;;25.81;43.34
64544;BME280;50936;51.660;5.616;2023-11-19T00:11:04;100489.47;;;25.79;43.18
64544;BME280;50936;51.660;5.616;2023-11-19T00:13:52;100491.59;;;25.77;42.92
64544;BME280;50936;51.660;5.616;2023-11-19T00:16:39;100497.34;;;25.75;43.33
64544;BME280;50936;51.660;5.616;2023-11-19T00:19:26;100483.09;;;25.71;43.37
64544;BME280;50936;51.660;5.616;2023-11-19T00:22:13;100470.34;;;25.70;43.51
64544;BME280;50936;51.660;5.616;2023-11-19T00:25:00;100456.94;;;25.67;43.29
64544;BME280;50936;51.660;5.616;2023-11-19T00:27:48;100458.03;;;25.66;43.51
64544;BME280;50936;51.660;5.616;2023-11-19T00:30:35;100461.84;;;25.65;43.43
64544;BME280;50936;51.660;5.616;2023-11-19T00:33:22;100454.41;;;25.59;43.42
64544;BME280;50936;51.660;5.616;2023-11-19T00:36:09;100453.31;;;25.60;43.55
64544;BME280;50936;51.660;5.616;2023-11-19T00:38:57;100452.69;;;25.58;43.68
64544;BME280;50936;51.660;5.616;2023-11-19T00:41:44;100452.06;;;25.56;43.51
64544;BME280;50936;51.660;5.616;2023-11-19T00:44:33;100454.19;;;25.54;43.50
64544;BME280;50936;51.660;5.616;2023-11-19T00:47:20;100452.94;;;25.50;43.71
64544;BME280;50936;51.660;5.616;2023-11-19T00:50:08;100451.22;;;25.49;43.71
64544;BME280;50936;51.660;5.616;2023-11-19T00:52:57;100456.13;;;25.47;43.72
64544;BME280;50936;51.660;5.616;2023-11-19T00:55:44;100458.25;;;25.45;43.60
64544;BME280;50936;51.660;5.616;2023-11-19T00:58:33;100461.22;;;25.43;43.68
64544;BME280;50936;51.660;5.616;2023-11-19T01:01:20;100464.81;;;25.44;43.48
64544;BME280;50936;51.660;5.616;2023-11-19T01:04:08;100466.97;;;25.42;43.90
64544;BME280;50936;51.660;5.616;2023-11-19T01:06:56;100466.97;;;25.42;43.93
64544;BME280;50936;51.660;5.616;2023-11-19T01:09:43;100454.63;;;25.38;43.71
64544;BME280;50936;51.660;5.616;2023-11-19T01:12:30;100452.91;;;25.36;43.71
64544;BME280;50936;51.660;5.616;2023-11-19T01:15:18;100451.25;;;25.35;43.73
64544;BME280;50936;51.660;5.616;2023-11-19T01:18:08;100439.31;;;25.35;43.86
64544;BME280;50936;51.660;5.616;2023-11-19T01:20:56;100435.06;;;25.32;44.05
64544;BME280;50936;51.660;5.616;2023-11-19T01:23:43;100439.56;;;25.33;44.10
64544;BME280;50936;51.660;5.616;2023-11-19T01:26:31;100430.63;;;25.31;43.89
64544;BME280;50936;51.660;5.616;2023-11-19T01:29:18;100419.16;;;25.28;44.21
64544;BME280;50936;51.660;5.616;2023-11-19T01:32:06;100418.06;;;25.29;44.08
64544;BME280;50936;51.660;5.616;2023-11-19T01:34:54;100416.38;;;25.28;43.85
64544;BME280;50936;51.660;5.616;2023-11-19T01:37:41;100410.00;;;25.27;44.04
64544;BME280;50936;51.660;5.616;2023-11-19T01:40:28;100404.47;;;25.27;44.12
64544;BME280;50936;51.660;5.616;2023-11-19T01:43:38;100426.56;;;25.27;44.04
64544;BME280;50936;51.660;5.616;2023-11-19T01:46:30;100421.50;;;25.24;44.00
64544;BME280;50936;51.660;5.616;2023-11-19T01:49:20;100427.84;;;25.25;43.98
64544;BME280;50936;51.660;5.616;2023-11-19T01:52:08;100433.56;;;25.23;43.89
64544;BME280;50936;51.660;5.616;2023-11-19T01:54:55;100427.41;;;25.21;44.01
64544;BME280;50936;51.660;5.616;2023-11-19T01:57:42;100429.09;;;25.22;44.23
64544;BME280;50936;51.660;5.616;2023-11-19T02:00:30;100421.03;;;25.21;44.24
64544;BME280;50936;51.660;5.616;2023-11-19T02:03:21;100416.56;;;25.20;44.43
64544;BME280;50936;51.660;5.616;2023-11-19T02:06:09;100408.25;;;25.20;44.18
64544;BME280;50936;51.660;5.616;2023-11-19T02:08:58;100411.25;;;25.18;44.13
64544;BME280;50936;51.660;5.616;2023-11-19T02:11:46;100411.69;;;25.15;43.90
64544;BME280;50936;51.660;5.616;2023-11-19T02:14:38;100402.31;;;25.16;44.05
64544;BME280;50936;51.660;5.616;2023-11-19T02:17:30;100405.06;;;25.16;44.25
64544;BME280;50936;51.660;5.616;2023-11-19T02:20:18;100413.78;;;25.13;44.05
64544;BME280;50936;51.660;5.616;2023-11-19T02:23:07;100414.44;;;25.15;44.23
64544;BME280;50936;51.660;5.616;2023-11-19T02:26:25;100418.91;;;25.16;44.35
64544;BME280;50936;51.660;5.616;2023-11-19T02:29:20;100427.38;;;25.14;44.11
64544;BME280;50936;51.660;5.616;2023-11-19T02:32:07;100412.09;;;25.12;44.36
64544;BME280;50936;51.660;5.616;2023-11-19T02:34:56;100412.09;;;25.12;44.26
64544;BME280;50936;51.660;5.616;2023-11-19T02:37:57;100419.75;;;25.10;44.17
64544;BME280;50936;51.660;5.616;2023-11-19T02:40:50;100404.91;;;25.24;43.78
64544;BME280;50936;51.660;5.616;2023-11-19T02:43:37;100405.28;;;25.14;44.03
64544;BME280;50936;51.660;5.616;2023-11-19T02:46:25;100417.63;;;25.12;44.33
64544;BME280;50936;51.660;5.616;2023-11-19T02:49:13;100405.31;;;25.08;44.42
64544;BME280;50936;51.660;5.616;2023-11-19T02:52:00;100418.50;;;25.06;44.42
64544;BME280;50936;51.660;5.616;2023-11-19T02:54:48;100418.50;;;25.06;44.54
64544;BME280;50936;51.660;5.616;2023-11-19T02:57:37;100416.78;;;25.05;44.47
64544;BME280;50936;51.660;5.616;2023-11-19T03:00:24;100404.00;;;25.04;44.44
64544;BME280;50936;51.660;5.616;2023-11-19T03:03:14;100427.81;;;25.05;44.51
64544;BME280;50936;51.660;5.616;2023-11-19T03:06:08;100429.94;;;25.03;44.25
64544;BME280;50936;51.660;5.616;2023-11-19T03:08:56;100422.72;;;25.02;44.14
64544;BME280;50936;51.660;5.616;2023-11-19T03:11:43;100417.19;;;25.02;44.22
64544;BME280;50936;51.660;5.616;2023-11-19T03:14:30;100419.09;;;25.01;44.56
64544;BME280;50936;51.660;5.616;2023-11-19T03:17:21;100421.03;;;25.01;44.52
64544;BME280;50936;51.660;5.616;2023-11-19T03:20:10;100421.03;;;25.01;44.32
64544;BME280;50936;51.660;5.616;2023-11-19T03:23:02;100425.47;;;25.02;44.41
64544;BME280;50936;51.660;5.616;2023-11-19T03:25:49;100424.84;;;25.00;44.55
64544;BME280;50936;51.660;5.616;2023-11-19T03:28:36;100424.84;;;25.00;44.43
64544;BME280;50936;51.660;5.616;2023-11-19T03:31:23;100417.84;;;24.97;44.50
64544;BME280;50936;51.660;5.616;2023-11-19T03:34:12;100408.69;;;24.96;44.48
64544;BME280;50936;51.660;5.616;2023-11-19T03:36:59;100411.44;;;24.96;44.52
64544;BME280;50936;51.660;5.616;2023-11-19T03:39:46;100413.38;;;24.96;44.51
64544;BME280;50936;51.660;5.616;2023-11-19T03:42:33;100407.00;;;24.95;44.32
64544;BME280;50936;51.660;5.616;2023-11-19T03:45:20;100397.22;;;24.93;44.40
64544;BME280;50936;51.660;5.616;2023-11-19T03:48:08;100405.72;;;24.91;44.47
64544;BME280;50936;51.660;5.616;2023-11-19T03:50:55;100400.63;;;24.95;44.40
64544;BME280;50936;51.660;5.616;2023-11-19T03:53:43;100394.69;;;24.91;44.32
64544;BME280;50936;51.660;5.616;2023-11-19T03:56:31;100395.53;;;24.92;44.61
64544;BME280;50936;51.660;5.616;2023-11-19T03:59:18;100403.59;;;24.93;44.32
64544;BME280;50936;51.660;5.616;2023-11-19T04:02:07;100394.69;;;24.91;44.58
64544;BME280;50936;51.660;5.616;2023-11-19T04:04:54;100389.16;;;24.91;44.51
64544;BME280;50936;51.660;5.616;2023-11-19T04:07:42;100405.09;;;24.89;44.60
64544;BME280;50936;51.660;5.616;2023-11-19T04:10:29;100390.41;;;24.89;44.56
64544;BME280;50936;51.660;5.616;2023-11-19T04:13:16;100394.25;;;24.88;44.54
64544;BME280;50936;51.660;5.616;2023-11-19T04:16:04;100401.91;;;24.86;44.67
64544;BME280;50936;51.660;5.616;2023-11-19T04:18:52;100408.06;;;24.88;44.50
64544;BME280;50936;51.660;5.616;2023-11-19T04:21:42;100415.47;;;24.87;44.88
64544;BME280;50936;51.660;5.616;2023-11-19T04:24:29;100416.97;;;24.83;44.47
64544;BME280;50936;51.660;5.616;2023-11-19T04:27:16;100417.59;;;24.85;44.59
64544;BME280;50936;51.660;5.616;2023-11-19T04:30:04;100433.34;;;24.85;44.57
64544;BME280;50936;51.660;5.616;2023-11-19T04:32:52;100423.34;;;24.84;44.38
64544;BME280;50936;51.660;5.616;2023-11-19T04:35:39;100425.25;;;24.83;44.63
64544;BME280;50936;51.660;5.616;2023-11-19T04:38:26;100430.78;;;24.83;44.57
64544;BME280;50936;51.660;5.616;2023-11-19T04:41:13;100435.66;;;24.81;44.56
64544;BME280;50936;51.660;5.616;2023-11-19T04:44:01;100437.38;;;24.82;44.81
64544;BME280;50936;51.660;5.616;2023-11-19T04:46:48;100431.22;;;24.80;44.43
64544;BME280;50936;51.660;5.616;2023-11-19T04:49:42;100435.88;;;24.79;44.82
64544;BME280;50936;51.660;5.616;2023-11-19T04:52:32;100449.88;;;24.78;44.82
64544;BME280;50936;51.660;5.616;2023-11-19T04:55:20;100449.88;;;24.78;44.67
64544;BME280;50936;51.660;5.616;2023-11-19T04:58:07;100449.88;;;24.78;44.56
64544;BME280;50936;51.660;5.616;2023-11-19T05:00:54;100442.66;;;24.77;44.73
64544;BME280;50936;51.660;5.616;2023-11-19T05:03:42;100438.84;;;24.78;44.79
64544;BME280;50936;51.660;5.616;2023-11-19T05:06:30;100429.91;;;24.76;44.67
64544;BME280;50936;51.660;5.616;2023-11-19T05:09:19;100429.91;;;24.76;44.46
64544;BME280;50936;51.660;5.616;2023-11-19T05:12:06;100442.88;;;24.75;44.73
64544;BME280;50936;51.660;5.616;2023-11-19T05:14:58;100443.94;;;24.74;44.47
64544;BME280;50936;51.660;5.616;2023-11-19T05:17:45;100434.16;;;24.72;44.50
64544;BME280;50936;51.660;5.616;2023-11-19T05:20:33;100448.59;;;24.74;44.54
64544;BME280;50936;51.660;5.616;2023-11-19T05:23:20;100435.88;;;24.73;44.82
64544;BME280;50936;51.660;5.616;2023-11-19T05:26:08;100436.28;;;24.70;44.63
64544;BME280;50936;51.660;5.616;2023-11-19T05:28:57;100439.03;;;24.70;44.94
64544;BME280;50936;51.660;5.616;2023-11-19T05:31:44;100442.44;;;24.72;44.62
64544;BME280;50936;51.660;5.616;2023-11-19T05:34:31;100437.97;;;24.71;44.78
64544;BME280;50936;51.660;5.616;2023-11-19T05:37:18;100445.41;;;24.70;44.57
64544;BME280;50936;51.660;5.616;2023-11-19T05:40:07;100432.88;;;24.68;44.99
64544;BME280;50936;51.660;5.616;2023-11-19T05:43:01;100440.09;;;24.69;44.93
64544;BME280;50936;51.660;5.616;2023-11-19T05:45:49;100449.66;;;24.66;44.88
64544;BME280;50936;51.660;5.616;2023-11-19T05:48:36;100451.13;;;24.69;45.05
64544;BME280;50936;51.660;5.616;2023-11-19T05:51:23;100464.75;;;24.77;45.31
64544;BME280;50936;51.660;5.616;2023-11-19T05:54:11;100457.13;;;24.92;45.39
64544;BME280;50936;51.660;5.616;2023-11-19T05:57:00;100453.53;;;25.12;45.58
64544;BME280;50936;51.660;5.616;2023-11-19T05:59:47;100450.78;;;25.39;45.16
64544;BME280;50936;51.660;5.616;2023-11-19T06:02:35;100451.66;;;25.59;44.75
64544;BME280;50936;51.660;5.616;2023-11-19T06:05:25;100456.47;;;25.77;44.80
64544;BME280;50936;51.660;5.616;2023-11-19T06:08:12;100450.94;;;25.97;44.71
64544;BME280;50936;51.660;5.616;2023-11-19T06:10:59;100443.84;;;26.15;44.42
64544;BME280;50936;51.660;5.616;2023-11-19T06:13:48;100452.28;;;26.33;44.29
64544;BME280;50936;51.660;5.616;2023-11-19T06:16:38;100450.06;;;26.48;43.90
64544;BME280;50936;51.660;5.616;2023-11-19T06:19:27;100437.25;;;26.61;43.93
64544;BME280;50936;51.660;5.616;2023-11-19T06:22:16;100437.00;;;26.69;43.72
64544;BME280;50936;51.660;5.616;2023-11-19T06:25:04;100432.91;;;26.78;43.48
64544;BME280;50936;51.660;5.616;2023-11-19T06:27:54;100441.38;;;26.83;43.38
64544;BME280;50936;51.660;5.616;2023-11-19T06:30:41;100444.31;;;26.88;43.10
64544;BME280;50936;51.660;5.616;2023-11-19T06:33:31;100454.13;;;26.91;43.07
64544;BME280;50936;51.660;5.616;2023-11-19T06:36:18;100447.91;;;26.96;42.99
64544;BME280;50936;51.660;5.616;2023-11-19T06:39:05;100457.19;;;27.08;42.83
64544;BME280;50936;51.660;5.616;2023-11-19T06:41:52;100453.50;;;27.14;42.75
64544;BME280;50936;51.660;5.616;2023-11-19T06:44:39;100436.88;;;27.14;42.68
64544;BME280;50936;51.660;5.616;2023-11-19T06:47:27;100435.81;;;27.15;42.49
64544;BME280;50936;51.660;5.616;2023-11-19T06:50:15;100441.97;;;27.17;42.43
64544;BME280;50936;51.660;5.616;2023-11-19T06:53:03;100456.47;;;27.19;42.46
64544;BME280;50936;51.660;5.616;2023-11-19T06:55:51;100454.31;;;27.21;42.46
64544;BME280;50936;51.660;5.616;2023-11-19T06:58:38;100458.56;;;27.24;42.43
64544;BME280;50936;51.660;5.616;2023-11-19T07:01:26;100464.06;;;27.31;42.28
64544;BME280;50936;51.660;5.616;2023-11-19T07:04:14;100479.34;;;27.40;42.27
64544;BME280;50936;51.660;5.616;2023-11-19T07:07:01;100484.84;;;27.46;42.10
64544;BME280;50936;51.660;5.616;2023-11-19T07:09:48;100483.09;;;27.52;42.26
64544;BME280;50936;51.660;5.616;2023-11-19T07:12:35;100488.97;;;27.62;41.90
64544;BME280;50936;51.660;5.616;2023-11-19T07:15:23;100505.09;;;27.72;41.91
64544;BME280;50936;51.660;5.616;2023-11-19T07:18:10;100496.22;;;27.82;41.74
64544;BME280;50936;51.660;5.616;2023-11-19T07:20:58;100498.56;;;27.85;41.64
64544;BME280;50936;51.660;5.616;2023-11-19T07:23:46;100500.28;;;27.86;41.47
64544;BME280;50936;51.660;5.616;2023-11-19T07:26:34;100503.03;;;27.86;41.34
64544;BME280;50936;51.660;5.616;2023-11-19T07:29:21;100502.41;;;27.84;41.55
64544;BME280;50936;51.660;5.616;2023-11-19T07:32:14;100504.09;;;27.85;41.60
64544;BME280;50936;51.660;5.616;2023-11-19T07:35:01;100509.66;;;27.85;41.21
64544;BME280;50936;51.660;5.616;2023-11-19T07:37:48;100528.44;;;27.90;41.39
64544;BME280;50936;51.660;5.616;2023-11-19T07:40:37;100526.50;;;27.90;41.17
64544;BME280;50936;51.660;5.616;2023-11-19T07:43:24;100522.19;;;27.94;41.21
64544;BME280;50936;51.660;5.616;2023-11-19T07:46:12;100522.81;;;27.96;41.07
64544;BME280;50936;51.660;5.616;2023-11-19T07:49:00;100532.53;;;28.06;41.09
64544;BME280;50936;51.660;5.616;2023-11-19T07:51:49;100517.50;;;28.13;41.27
64544;BME280;50936;51.660;5.616;2023-11-19T07:54:36;100526.81;;;28.19;41.00
64544;BME280;50936;51.660;5.616;2023-11-19T07:57:24;100516.09;;;28.22;40.69
64544;BME280;50936;51.660;5.616;2023-11-19T08:00:11;100515.44;;;28.27;40.71
64544;BME280;50936;51.660;5.616;2023-11-19T08:02:59;100517.25;;;28.33;40.81
64544;BME280;50936;51.660;5.616;2023-11-19T08:05:46;100526.38;;;28.40;40.72
64544;BME280;50936;51.660;5.616;2023-11-19T08:08:34;100521.91;;;28.39;40.57
64544;BME280;50936;51.660;5.616;2023-11-19T08:11:21;100531.22;;;28.45;40.57
64544;BME280;50936;51.660;5.616;2023-11-19T08:14:09;100529.03;;;28.54;40.60
64544;BME280;50936;51.660;5.616;2023-11-19T08:16:56;100527.69;;;28.56;40.26
64544;BME280;50936;51.660;5.616;2023-11-19T08:19:44;100524.69;;;28.58;40.45
64544;BME280;50936;51.660;5.616;2023-11-19T08:22:31;100532.41;;;28.56;40.26
64544;BME280;50936;51.660;5.616;2023-11-19T08:25:18;100521.31;;;28.56;40.31
64544;BME280;50936;51.660;5.616;2023-11-19T08:28:05;100524.31;;;28.54;40.05
64544;BME280;50936;51.660;5.616;2023-11-19T08:30:52;100526.38;;;28.59;40.04
64544;BME280;50936;51.660;5.616;2023-11-19T08:33:39;100524.69;;;28.58;40.29
64544;BME280;50936;51.660;5.616;2023-11-19T08:36:26;100532.41;;;28.56;40.39
64544;BME280;50936;51.660;5.616;2023-11-19T08:39:14;100521.34;;;28.49;40.27
64544;BME280;50936;51.660;5.616;2023-11-19T08:42:02;100534.25;;;28.44;40.06
64544;BME280;50936;51.660;5.616;2023-11-19T08:44:50;100540.34;;;28.34;40.15
64544;BME280;50936;51.660;5.616;2023-11-19T08:47:40;100522.03;;;28.26;40.25
64544;BME280;50936;51.660;5.616;2023-11-19T08:50:28;100526.81;;;28.19;40.24
64544;BME280;50936;51.660;5.616;2023-11-19T08:53:15;100532.69;;;28.11;40.22
64544;BME280;50936;51.660;5.616;2023-11-19T08:56:02;100532.34;;;28.00;40.38
64544;BME280;50936;51.660;5.616;2023-11-19T08:58:50;100538.38;;;27.97;40.34
64544;BME280;50936;51.660;5.616;2023-11-19T09:01:37;100539.91;;;27.93;40.56
64544;BME280;50936;51.660;5.616;2023-11-19T09:04:25;100539.28;;;27.91;40.35
64544;BME280;50936;51.660;5.616;2023-11-19T09:07:12;100539.91;;;27.93;40.30
64544;BME280;50936;51.660;5.616;2023-11-19T09:09:59;100536.47;;;27.98;40.35
64544;BME280;50936;51.660;5.616;2023-11-19T09:12:46;100530.47;;;28.01;40.66
64544;BME280;50936;51.660;5.616;2023-11-19T09:15:34;100531.69;;;28.05;40.33
64544;BME280;50936;51.660;5.616;2023-11-19T09:18:21;100520.97;;;28.09;40.24
64544;BME280;50936;51.660;5.616;2023-11-19T09:21:10;100540.09;;;28.17;40.12
64544;BME280;50936;51.660;5.616;2023-11-19T09:23:58;100526.16;;;28.23;40.23
64544;BME280;50936;51.660;5.616;2023-11-19T09:26:45;100545.50;;;28.30;40.13
64544;BME280;50936;51.660;5.616;2023-11-19T09:29:32;100533.47;;;28.36;39.79
64544;BME280;50936;51.660;5.616;2023-11-19T09:32:20;100524.81;;;28.45;40.10
64544;BME280;50936;51.660;5.616;2023-11-19T09:35:07;100526.44;;;28.52;40.00
64544;BME280;50936;51.660;5.616;2023-11-19T09:37:55;100519.59;;;28.55;39.79
64544;BME280;50936;51.660;5.616;2023-11-19T09:40:42;100537.38;;;28.54;39.44
64544;BME280;50936;51.660;5.616;2023-11-19T09:43:30;100527.94;;;28.55;39.79
64544;BME280;50936;51.660;5.616;2023-11-19T09:46:18;100534.59;;;28.54;39.41
64544;BME280;50936;51.660;5.616;2023-11-19T09:49:08;100540.13;;;28.54;39.80
64544;BME280;50936;51.660;5.616;2023-11-19T09:51:57;100537.97;;;28.56;39.38
64544;BME280;50936;51.660;5.616;2023-11-19T09:54:45;100528.31;;;28.58;39.64
64544;BME280;50936;51.660;5.616;2023-11-19T09:57:34;100527.47;;;28.58;39.22
64544;BME280;50936;51.660;5.616;2023-11-19T10:00:23;100532.41;;;28.56;39.39
64544;BME280;50936;51.660;5.616;2023-11-19T10:03:12;100530.72;;;28.55;39.65
64544;BME280;50936;51.660;5.616;2023-11-19T10:06:00;100524.53;;;28.53;39.66
64544;BME280;50936;51.660;5.616;2023-11-19T10:08:49;100529.44;;;28.51;39.37
64544;BME280;50936;51.660;5.616;2023-11-19T10:11:36;100530.53;;;28.50;39.23
64544;BME280;50936;51.660;5.616;2023-11-19T10:14:23;100520.50;;;28.49;39.18
64544;BME280;50936;51.660;5.616;2023-11-19T10:17:11;100522.19;;;28.50;39.43
64544;BME280;50936;51.660;5.616;2023-11-19T10:19:58;100516.63;;;28.50;39.44
64544;BME280;50936;51.660;5.616;2023-11-19T10:22:46;100512.41;;;28.47;39.60
64544;BME280;50936;51.660;5.616;2023-11-19T10:25:33;100515.78;;;28.49;39.55
64544;BME280;50936;51.660;5.616;2023-11-19T10:28:21;100523.50;;;28.47;39.19
64544;BME280;50936;51.660;5.616;2023-11-19T10:31:08;100519.63;;;28.48;39.55
64544;BME280;50936;51.660;5.616;2023-11-19T10:33:55;100510.69;;;28.46;39.35
64544;BME280;50936;51.660;5.616;2023-11-19T10:36:43;100522.03;;;28.45;39.52
64544;BME280;50936;51.660;5.616;2023-11-19T10:39:52;100516.75;;;28.43;39.53
64544;BME280;50936;51.660;5.616;2023-11-19T10:42:44;100518.81;;;28.48;39.40
64544;BME280;50936;51.660;5.616;2023-11-19T10:45:31;100507.69;;;28.48;39.56
64544;BME280;50936;51.660;5.616;2023-11-19T10:48:20;100499.34;;;28.48;39.53
64544;BME280;50936;51.660;5.616;2023-11-19T10:51:12;100505.75;;;28.48;39.23
64544;BME280;50936;51.660;5.616;2023-11-19T10:54:08;100503.84;;;28.49;39.25
64544;BME280;50936;51.660;5.616;2023-11-19T10:56:59;100508.78;;;28.47;39.44
64544;BME280;50936;51.660;5.616;2023-11-19T10:59:52;100508.16;;;28.45;39.27
64544;BME280;50936;51.660;5.616;2023-11-19T11:02:50;100498.59;;;28.40;39.21
64544;BME280;50936;51.660;5.616;2023-11-19T11:05:42;100507.41;;;28.37;39.45
64544;BME280;50936;51.660;5.616;2023-11-19T11:08:30;100504.47;;;28.32;39.39
64544;BME280;50936;51.660;5.616;2023-11-19T11:11:18;100509.03;;;28.27;39.24
64544;BME280;50936;51.660;5.616;2023-11-19T11:14:12;100505.38;;;28.26;39.55
64544;BME280;50936;51.660;5.616;2023-11-19T11:17:03;100497.69;;;28.28;39.43
64544;BME280;50936;51.660;5.616;2023-11-19T11:19:54;100484.44;;;28.30;39.53
64544;BME280;50936;51.660;5.616;2023-11-19T11:22:51;100484.44;;;28.30;39.32
64544;BME280;50936;51.660;5.616;2023-11-19T11:26:34;100490.38;;;28.34;39.14
64544;BME280;50936;51.660;5.616;2023-11-19T11:36:31;100467.75;;;28.30;39.50
64544;BME280;50936;51.660;5.616;2023-11-19T11:39:32;100474.53;;;28.34;39.07
64544;BME280;50936;51.660;5.616;2023-11-19T11:45:15;100478.00;;;28.30;39.36
64544;BME280;50936;51.660;5.616;2023-11-19T11:48:16;100482.09;;;28.27;39.10
64544;BME280;50936;51.660;5.616;2023-11-19T11:51:06;100473.31;;;28.30;39.31
64544;BME280;50936;51.660;5.616;2023-11-19T11:53:54;100477.16;;;28.29;39.48
64544;BME280;50936;51.660;5.616;2023-11-19T11:56:41;100478.00;;;28.30;39.34
64544;BME280;50936;51.660;5.616;2023-11-19T11:59:45;100473.78;;;28.27;39.33
64544;BME280;50936;51.660;5.616;2023-11-19T12:02:34;100464.38;;;28.28;39.23
64544;BME280;50936;51.660;5.616;2023-11-19T12:05:21;100473.31;;;28.30;39.14
64544;BME280;50936;51.660;5.616;2023-11-19T12:08:11;100475.00;;;28.31;39.21
64544;BME280;50936;51.660;5.616;2023-11-19T12:11:01;100471.59;;;28.29;39.20
64544;BME280;50936;51.660;5.616;2023-11-19T12:13:55;100469.94;;;28.28;39.09
64544;BME280;50936;51.660;5.616;2023-11-19T12:16:50;100474.16;;;28.31;39.39
64544;BME280;50936;51.660;5.616;2023-11-19T12:19:41;100467.75;;;28.30;39.11
64544;BME280;50936;51.660;5.616;2023-11-19T12:22:29;100466.66;;;28.31;39.20
64544;BME280;50936;51.660;5.616;2023-11-19T12:25:17;100463.66;;;28.33;38.95
64544;BME280;50936;51.660;5.616;2023-11-19T12:28:05;100463.06;;;28.31;39.28
64544;BME280;50936;51.660;5.616;2023-11-19T12:30:53;100463.72;;;28.26;39.08
64544;BME280;50936;51.660;5.616;2023-11-19T12:33:40;100447.34;;;28.25;39.22
64544;BME280;50936;51.660;5.616;2023-11-19T12:36:29;100449.56;;;28.16;39.29
64544;BME280;50936;51.660;5.616;2023-11-19T12:39:21;100456.03;;;28.10;39.09
64544;BME280;50936;51.660;5.616;2023-11-19T12:42:08;100452.19;;;28.11;39.19
64544;BME280;50936;51.660;5.616;2023-11-19T12:44:57;100462.34;;;28.17;39.51
64544;BME280;50936;51.660;5.616;2023-11-19T12:47:45;100466.84;;;28.18;39.42
64544;BME280;50936;51.660;5.616;2023-11-19T12:50:53;100462.34;;;28.17;39.47
64544;BME280;50936;51.660;5.616;2023-11-19T12:53:49;100464.06;;;28.18;39.27
64544;BME280;50936;51.660;5.616;2023-11-19T12:56:54;100466.69;;;28.13;39.33
64544;BME280;50936;51.660;5.616;2023-11-19T12:59:41;100465.47;;;28.09;39.09
64544;BME280;50936;51.660;5.616;2023-11-19T13:02:46;100455.91;;;28.05;39.47
64544;BME280;50936;51.660;5.616;2023-11-19T13:05:37;100442.94;;;27.98;39.23
64544;BME280;50936;51.660;5.616;2023-11-19T13:08:25;100443.41;;;27.95;39.51
64544;BME280;50936;51.660;5.616;2023-11-19T13:11:13;100449.84;;;27.89;39.65
64544;BME280;50936;51.660;5.616;2023-11-19T13:14:02;100450.78;;;27.83;39.52
64544;BME280;50936;51.660;5.616;2023-11-19T13:16:52;100447.84;;;27.78;39.76
64544;BME280;50936;51.660;5.616;2023-11-19T13:19:40;100445.75;;;27.73;39.76
64544;BME280;50936;51.660;5.616;2023-11-19T13:22:28;100443.22;;;27.72;39.94
64544;BME280;50936;51.660;5.616;2023-11-19T13:25:15;100447.50;;;27.68;39.75
64544;BME280;50936;51.660;5.616;2023-11-19T13:28:02;100447.09;;;27.64;39.42
64544;BME280;50936;51.660;5.616;2023-11-19T13:30:50;100452.28;;;27.60;39.99
64544;BME280;50936;51.660;5.616;2023-11-19T13:33:38;100453.19;;;27.54;39.99
64544;BME280;50936;51.660;5.616;2023-11-19T13:36:25;100453.63;;;27.51;40.01
64544;BME280;50936;51.660;5.616;2023-11-19T13:39:13;100448.09;;;27.51;40.19
64544;BME280;50936;51.660;5.616;2023-11-19T13:42:02;100446.59;;;27.55;40.28
64544;BME280;50936;51.660;5.616;2023-11-19T13:44:52;100444.19;;;27.59;40.01
64544;BME280;50936;51.660;5.616;2023-11-19T13:47:41;100437.34;;;27.61;40.30
64544;BME280;50936;51.660;5.616;2023-11-19T13:50:29;100442.03;;;27.61;40.28
64544;BME280;50936;51.660;5.616;2023-11-19T13:53:16;100437.78;;;27.58;40.47
64544;BME280;50936;51.660;5.616;2023-11-19T13:56:04;100439.09;;;27.56;40.16
64544;BME280;50936;51.660;5.616;2023-11-19T13:58:51;100444.25;;;27.52;40.46
64544;BME280;50936;51.660;5.616;2023-11-19T14:01:40;100447.47;;;27.49;40.56
64544;BME280;50936;51.660;5.616;2023-11-19T14:04:27;100429.59;;;27.45;40.66
64544;BME280;50936;51.660;5.616;2023-11-19T14:07:14;100444.56;;;27.44;40.69
64544;BME280;50936;51.660;5.616;2023-11-19T14:10:02;100435.84;;;27.40;40.83
64544;BME280;50936;51.660;5.616;2023-11-19T14:12:50;100429.28;;;27.35;40.84
64544;BME280;50936;51.660;5.616;2023-11-19T14:15:37;100434.19;;;27.33;40.80
64544;BME280;50936;51.660;5.616;2023-11-19T14:18:24;100423.56;;;27.30;41.09
64544;BME280;50936;51.660;5.616;2023-11-19T14:21:11;100415.44;;;27.35;40.90
64544;BME280;50936;51.660;5.616;2023-11-19T14:23:58;100417.09;;;27.36;41.19
64544;BME280;50936;51.660;5.616;2023-11-19T14:26:46;100402.19;;;27.37;40.98
64544;BME280;50936;51.660;5.616;2023-11-19T14:29:41;100394.47;;;27.39;41.05
64544;BME280;50936;51.660;5.616;2023-11-19T14:32:28;100393.09;;;27.48;40.81
64544;BME280;50936;51.660;5.616;2023-11-19T14:35:16;100389.25;;;27.49;40.87
64544;BME280;50936;51.660;5.616;2023-11-19T14:38:03;100385.84;;;27.47;41.12
64544;BME280;50936;51.660;5.616;2023-11-19T14:40:52;100401.03;;;27.44;41.16
64544;BME280;50936;51.660;5.616;2023-11-19T14:43:39;100382.00;;;27.48;41.07
64544;BME280;50936;51.660;5.616;2023-11-19T14:46:26;100377.69;;;27.52;41.15
64544;BME280;50936;51.660;5.616;2023-11-19T14:49:14;100386.00;;;27.52;41.03
64544;BME280;50936;51.660;5.616;2023-11-19T14:52:01;100399.44;;;27.55;40.93
64544;BME280;50936;51.660;5.616;2023-11-19T14:54:51;100407.13;;;27.53;41.02